createdAt,value
2023-05-08T05:03:18.010Z,42.89
2023-05-08T05:04:18.961Z,41.76
2023-05-08T05:05:18.957Z,41.63
2023-05-08T05:06:17.971Z,41.50
2023-05-08T05:07:19.008Z,41.49
2023-05-08T05:08:19.047Z,41.38
2023-05-08T05:09:19.089Z,41.59
2023-05-08T05:10:19.112Z,41.59
2023-05-08T05:11:18.076Z,41.53
2023-05-08T05:12:19.118Z,41.71
2023-05-08T05:13:18.274Z,41.78
2023-05-08T05:14:19.244Z,41.53
2023-05-08T05:15:18.314Z,41.70
2023-05-08T05:16:18.441Z,41.76
2023-05-08T05:17:18.413Z,41.88
2023-05-08T05:18:19.445Z,41.86
2023-05-08T05:19:19.538Z,42.02
2023-05-08T05:20:18.593Z,42.28
2023-05-08T05:21:18.622Z,42.48
2023-05-08T05:22:19.679Z,42.52
2023-05-08T05:23:19.705Z,42.57
2023-05-08T05:24:19.755Z,42.79
2023-05-08T05:25:19.753Z,42.79
2023-05-08T05:26:19.726Z,42.78
2023-05-08T05:27:21.284Z,42.86
2023-05-08T05:28:19.970Z,42.66
2023-05-08T05:29:20.053Z,42.43
2023-05-08T05:30:20.128Z,42.55
2023-05-08T05:31:20.140Z,42.56
2023-05-08T05:32:20.269Z,42.44
2023-05-08T05:33:20.187Z,42.50
2023-05-08T05:34:20.194Z,42.87
2023-05-08T05:35:19.322Z,42.80
2023-05-08T05:36:19.305Z,42.37
2023-05-08T05:37:19.302Z,42.37
2023-05-08T05:38:20.390Z,42.17
2023-05-08T05:39:20.387Z,42.59
2023-05-08T05:40:19.410Z,42.44
2023-05-08T05:41:20.425Z,42.40
2023-05-08T05:42:19.480Z,42.58
2023-05-08T05:43:20.636Z,42.53
2023-05-08T05:44:19.436Z,43.25
2023-05-08T05:45:20.442Z,42.40
2023-05-08T05:46:19.465Z,42.43
2023-05-08T05:47:20.465Z,42.55
2023-05-08T05:48:20.459Z,42.29
2023-05-08T05:49:20.453Z,42.02
2023-05-08T05:50:20.455Z,41.75
2023-05-08T05:51:19.505Z,41.99
2023-05-08T05:52:19.653Z,42.44
2023-05-08T05:53:20.505Z,42.11
2023-05-08T05:54:20.453Z,42.13
2023-05-08T05:55:19.590Z,42.37
2023-05-08T05:56:19.583Z,42.41
2023-05-08T05:57:19.512Z,42.61
2023-05-08T05:58:20.592Z,43.11
2023-05-08T05:59:20.499Z,42.96
2023-05-08T06:00:20.772Z,43.77
2023-05-08T06:01:20.538Z,43.12
2023-05-08T06:02:20.652Z,43.75
2023-05-08T06:03:20.633Z,43.86
2023-05-08T06:04:20.680Z,43.93
2023-05-08T06:05:20.643Z,42.68
2023-05-08T06:06:20.553Z,42.36
2023-05-08T06:07:20.627Z,42.43
2023-05-08T06:08:19.648Z,42.27
2023-05-08T06:09:19.724Z,42.03
2023-05-08T06:10:20.769Z,42.21
2023-05-08T06:11:19.804Z,42.48
2023-05-08T06:12:20.838Z,42.68
2023-05-08T06:13:20.899Z,42.59
2023-05-08T06:14:19.933Z,43.06
2023-05-08T06:15:21.014Z,43.33
2023-05-08T06:16:21.088Z,43.33
2023-05-08T06:17:20.077Z,43.54
2023-05-08T06:18:20.129Z,43.47
2023-05-08T06:19:20.230Z,43.50
2023-05-08T06:20:20.275Z,43.18
2023-05-08T06:21:20.314Z,43.16
2023-05-08T06:22:20.344Z,42.81
2023-05-08T06:23:20.357Z,42.83
2023-05-08T06:24:21.413Z,42.71
2023-05-08T06:25:20.431Z,43.25
2023-05-08T06:26:23.228Z,42.94
2023-05-08T06:27:21.479Z,43.78
2023-05-08T06:28:21.453Z,43.53
2023-05-08T06:29:20.545Z,43.82
2023-05-08T06:30:21.478Z,43.56
2023-05-08T06:31:20.487Z,43.25
2023-05-08T06:32:21.512Z,43.36
2023-05-08T06:33:21.432Z,43.25
2023-05-08T06:34:21.418Z,43.36
2023-05-08T06:35:21.543Z,43.11
2023-05-08T06:36:20.421Z,43.24
2023-05-08T06:37:20.405Z,43.40
2023-05-08T06:38:20.415Z,43.00
2023-05-08T06:39:21.543Z,42.80
2023-05-08T06:40:20.482Z,43.08
2023-05-08T06:41:21.354Z,43.52
2023-05-08T06:42:20.357Z,43.61
2023-05-08T06:43:21.446Z,43.50
2023-05-08T06:44:20.364Z,43.55
2023-05-08T06:45:20.340Z,43.57
2023-05-08T06:46:20.352Z,43.53
2023-05-08T06:47:20.399Z,43.44
2023-05-08T06:48:20.333Z,43.21
2023-05-08T06:49:20.344Z,43.30
2023-05-08T06:50:21.305Z,43.28
2023-05-08T06:51:21.429Z,43.39
2023-05-08T06:52:20.450Z,43.63
2023-05-08T06:53:21.563Z,43.68
2023-05-08T06:54:20.563Z,43.06
2023-05-08T06:55:21.683Z,43.13
2023-05-08T06:56:20.655Z,43.42
2023-05-08T06:57:20.774Z,44.46
2023-05-08T06:58:20.944Z,43.71
2023-05-08T06:59:20.812Z,44.04
2023-05-08T07:00:21.831Z,43.78
2023-05-08T07:01:20.844Z,43.80
2023-05-08T07:02:21.919Z,43.66
2023-05-08T07:03:20.738Z,43.39
2023-05-08T07:04:20.744Z,43.30
2023-05-08T07:05:20.862Z,43.15
2023-05-08T07:06:20.737Z,43.45
2023-05-08T07:07:21.748Z,43.43
2023-05-08T07:08:20.713Z,43.40
2023-05-08T07:09:20.718Z,43.29
2023-05-08T07:10:21.739Z,43.32
2023-05-08T07:11:20.741Z,43.41
2023-05-08T07:12:20.734Z,43.62
2023-05-08T07:13:21.909Z,43.61
2023-05-08T07:14:21.036Z,43.28
2023-05-08T07:15:26.085Z,43.22
2023-05-08T07:16:22.277Z,43.56
2023-05-08T07:17:20.782Z,43.56
2023-05-08T07:18:21.818Z,43.58
2023-05-08T07:19:22.384Z,43.45
2023-05-08T07:20:22.058Z,43.38
2023-05-08T07:21:21.803Z,43.50
2023-05-08T07:22:21.053Z,43.95
2023-05-08T07:23:21.789Z,43.25
2023-05-08T07:24:20.781Z,43.08
2023-05-08T07:25:20.739Z,43.25
2023-05-08T07:26:21.746Z,43.09
2023-05-08T07:27:21.749Z,43.43
2023-05-08T07:28:21.711Z,43.31
2023-05-08T07:29:21.727Z,43.14
2023-05-08T07:30:20.701Z,42.99
2023-05-08T07:31:21.786Z,42.98
2023-05-08T07:32:21.798Z,42.91
2023-05-08T07:33:20.898Z,42.82
2023-05-08T07:34:21.885Z,42.68
2023-05-08T07:35:21.008Z,42.73
2023-05-08T07:36:22.016Z,42.60
2023-05-08T07:37:22.121Z,42.46
2023-05-08T07:38:21.116Z,42.44
2023-05-08T07:39:22.203Z,42.63
2023-05-08T07:40:21.235Z,42.50
2023-05-08T07:41:21.330Z,42.37
2023-05-08T07:42:21.312Z,42.60
2023-05-08T07:43:22.404Z,42.41
2023-05-08T07:44:22.386Z,43.17
2023-05-08T07:45:21.439Z,43.08
2023-05-08T07:46:21.523Z,42.95
2023-05-08T07:47:21.547Z,42.73
2023-05-08T07:48:21.588Z,42.99
2023-05-08T07:49:21.660Z,42.67
2023-05-08T07:50:22.286Z,42.78
2023-05-08T07:51:22.772Z,42.95
2023-05-08T07:52:21.816Z,42.69
2023-05-08T07:53:23.044Z,43.00
2023-05-08T07:54:21.907Z,42.64
2023-05-08T07:55:23.106Z,42.15
2023-05-08T07:56:21.987Z,42.17
2023-05-08T07:57:22.051Z,41.89
2023-05-08T07:58:23.902Z,42.14
2023-05-08T07:59:22.124Z,41.96
2023-05-08T08:00:23.430Z,41.97
2023-05-08T08:01:23.168Z,41.79
2023-05-08T08:02:22.324Z,41.90
2023-05-08T08:03:23.392Z,41.79
2023-05-08T08:04:22.277Z,41.61
2023-05-08T08:05:23.292Z,41.54
2023-05-08T08:06:23.362Z,42.21
2023-05-08T08:07:23.488Z,41.55
2023-05-08T08:08:22.443Z,41.55
2023-05-08T08:09:23.384Z,41.67
2023-05-08T08:10:23.409Z,41.17
2023-05-08T08:11:23.487Z,41.38
2023-05-08T08:12:23.494Z,41.21
2023-05-08T08:13:22.548Z,41.55
2023-05-08T08:14:22.513Z,41.80
2023-05-08T08:15:22.667Z,41.90
2023-05-08T08:16:22.576Z,42.34
2023-05-08T08:17:24.354Z,42.56
2023-05-08T08:18:22.661Z,42.01
2023-05-08T08:19:22.644Z,41.51
2023-05-08T08:20:22.557Z,42.08
2023-05-08T08:21:22.572Z,41.96
2023-05-08T08:22:22.577Z,41.78
2023-05-08T08:23:23.715Z,42.01
2023-05-08T08:24:22.613Z,42.16
2023-05-08T08:25:23.620Z,42.12
2023-05-08T08:26:22.558Z,41.97
2023-05-08T08:27:22.570Z,41.86
2023-05-08T08:28:23.519Z,41.56
2023-05-08T08:29:22.522Z,41.40
2023-05-08T08:30:22.547Z,41.14
2023-05-08T08:31:22.649Z,41.36
2023-05-08T08:32:23.631Z,41.86
2023-05-08T08:33:22.498Z,41.74
2023-05-08T08:34:22.445Z,42.03
2023-05-08T08:35:22.499Z,42.25
2023-05-08T08:36:22.439Z,41.74
2023-05-08T08:37:23.464Z,40.96
2023-05-08T08:38:22.463Z,41.03
2023-05-08T08:39:23.500Z,41.22
2023-05-08T08:40:22.476Z,41.67
2023-05-08T08:41:23.891Z,41.78
2023-05-08T08:42:23.432Z,41.80
2023-05-08T08:43:23.287Z,42.50
2023-05-08T08:44:23.442Z,42.44
2023-05-08T08:45:22.415Z,43.11
2023-05-08T08:46:22.512Z,42.96
2023-05-08T08:47:23.590Z,42.99
2023-05-08T08:48:22.646Z,42.94
2023-05-08T08:49:23.552Z,43.09
2023-05-08T08:50:22.593Z,42.94
2023-05-08T08:51:22.431Z,43.12
2023-05-08T08:52:23.328Z,43.38
2023-05-08T08:53:23.404Z,43.30
2023-05-08T08:54:22.312Z,43.37
2023-05-08T08:55:23.364Z,43.25
2023-05-08T08:56:23.286Z,43.46
2023-05-08T08:57:23.298Z,43.38
2023-05-08T08:58:23.320Z,42.98
2023-05-08T08:59:24.338Z,41.93
2023-05-08T09:00:22.383Z,41.89
2023-05-08T09:01:23.548Z,41.89
2023-05-08T09:02:23.903Z,41.50
2023-05-08T09:03:23.968Z,41.56
2023-05-08T09:04:22.845Z,41.44
2023-05-08T09:05:22.667Z,41.96
2023-05-08T09:06:24.199Z,41.96
2023-05-08T09:07:23.780Z,42.56
2023-05-08T09:08:24.046Z,42.18
2023-05-08T09:09:22.971Z,41.06
2023-05-08T09:10:23.996Z,41.34
2023-05-08T09:11:24.021Z,41.34
2023-05-08T09:12:24.195Z,41.92
2023-05-08T09:13:23.195Z,41.82
2023-05-08T09:14:23.370Z,41.90
2023-05-08T09:15:23.305Z,41.71
2023-05-08T09:16:24.363Z,41.95
2023-05-08T09:17:23.381Z,41.92
2023-05-08T09:18:24.423Z,41.91
2023-05-08T09:19:26.326Z,41.96
2023-05-08T09:20:23.483Z,42.10
2023-05-08T09:21:24.488Z,42.17
2023-05-08T09:22:24.497Z,42.30
2023-05-08T09:23:24.440Z,42.41
2023-05-08T09:24:24.449Z,42.35
2023-05-08T09:25:23.475Z,41.91
2023-05-08T09:26:23.873Z,42.59
2023-05-08T09:27:24.421Z,42.50
2023-05-08T09:28:24.439Z,43.28
2023-05-08T09:29:24.433Z,42.84
2023-05-08T09:30:24.443Z,43.22
2023-05-08T09:31:24.833Z,42.81
2023-05-08T09:32:23.422Z,43.49
2023-05-08T09:33:24.377Z,43.14
2023-05-08T09:34:24.381Z,43.19
2023-05-08T09:35:23.747Z,43.48
2023-05-08T09:36:23.350Z,44.04
2023-05-08T09:37:23.356Z,44.25
2023-05-08T09:38:24.515Z,44.14
2023-05-08T09:39:23.373Z,44.11
2023-05-08T09:40:24.329Z,44.60
2023-05-08T09:41:23.329Z,44.19
2023-05-08T09:42:24.505Z,43.94
2023-05-08T09:43:24.360Z,43.83
2023-05-08T09:44:23.568Z,43.90
2023-05-08T09:45:23.304Z,43.90
2023-05-08T09:46:24.520Z,43.87
2023-05-08T09:47:24.427Z,43.97
2023-05-08T09:48:24.311Z,44.29
2023-05-08T09:49:23.271Z,44.05
2023-05-08T09:50:24.292Z,43.31
2023-05-08T09:51:24.437Z,43.01
2023-05-08T09:52:23.254Z,42.69
2023-05-08T09:53:24.276Z,42.65
2023-05-08T09:54:24.231Z,42.71
2023-05-08T09:55:24.210Z,43.02
2023-05-08T09:56:24.220Z,42.95
2023-05-08T09:57:23.227Z,43.25
2023-05-08T09:58:23.211Z,43.11
2023-05-08T09:59:23.215Z,43.14
2023-05-08T10:00:23.209Z,43.00
2023-05-08T10:01:23.232Z,43.13
2023-05-08T10:02:23.257Z,42.91
2023-05-08T10:03:23.321Z,43.17
2023-05-08T10:04:24.341Z,43.09
2023-05-08T10:05:23.391Z,43.10
2023-05-08T10:06:24.457Z,43.10
2023-05-08T10:07:24.634Z,43.38
2023-05-08T10:08:23.582Z,42.68
2023-05-08T10:09:23.616Z,42.47
2023-05-08T10:10:23.653Z,42.65
2023-05-08T10:11:23.829Z,42.50
2023-05-08T10:12:24.727Z,42.71
2023-05-08T10:13:24.745Z,42.59
2023-05-08T10:14:23.705Z,42.49
2023-05-08T10:15:24.721Z,42.31
2023-05-08T10:16:23.769Z,42.26
2023-05-08T10:17:24.749Z,42.36
2023-05-08T10:18:24.780Z,42.50
2023-05-08T10:19:23.763Z,42.46
2023-05-08T10:20:24.801Z,42.55
2023-05-08T10:21:24.774Z,42.39
2023-05-08T10:22:23.797Z,42.33
2023-05-08T10:23:24.941Z,42.30
2023-05-08T10:24:23.792Z,42.34
2023-05-08T10:25:24.826Z,42.40
2023-05-08T10:26:23.837Z,42.23
2023-05-08T10:27:24.863Z,42.22
2023-05-08T10:28:24.901Z,42.08
2023-05-08T10:29:23.939Z,42.02
2023-05-08T10:30:23.961Z,41.89
2023-05-08T10:31:25.021Z,41.95
2023-05-08T10:32:24.059Z,42.05
2023-05-08T10:33:25.047Z,41.66
2023-05-08T10:34:24.080Z,41.61
2023-05-08T10:35:25.069Z,41.84
2023-05-08T10:36:25.072Z,42.03
2023-05-08T10:37:25.063Z,41.95
2023-05-08T10:38:24.101Z,42.14
2023-05-08T10:39:25.283Z,41.92
2023-05-08T10:40:24.201Z,41.88
2023-05-08T10:41:24.347Z,42.11
2023-05-08T10:42:24.245Z,41.84
2023-05-08T10:43:24.230Z,41.96
2023-05-08T10:44:25.261Z,41.88
2023-05-08T10:45:24.188Z,41.62
2023-05-08T10:46:24.290Z,41.91
2023-05-08T10:47:25.417Z,41.89
2023-05-08T10:48:24.436Z,41.90
2023-05-08T10:49:24.389Z,41.86
2023-05-08T10:50:25.506Z,41.77
2023-05-08T10:51:24.507Z,41.80
2023-05-08T10:52:24.576Z,41.84
2023-05-08T10:53:24.641Z,41.92
2023-05-08T10:54:24.687Z,41.51
2023-05-08T10:55:25.691Z,41.28
2023-05-08T10:56:25.649Z,41.40
2023-05-08T10:57:25.586Z,41.52
2023-05-08T10:58:25.630Z,41.28
2023-05-08T10:59:24.689Z,41.50
2023-05-08T11:00:24.674Z,41.21
2023-05-08T11:01:25.773Z,41.20
2023-05-08T11:02:24.758Z,41.23
2023-05-08T11:03:31.296Z,41.05
2023-05-08T11:04:25.751Z,41.04
2023-05-08T11:05:25.801Z,40.89
2023-05-08T11:06:24.680Z,41.29
2023-05-08T11:07:25.730Z,41.32
2023-05-08T11:08:25.639Z,41.16
2023-05-08T11:09:25.700Z,41.13
2023-05-08T11:10:25.656Z,41.22
2023-05-08T11:11:25.692Z,41.80
2023-05-08T11:12:24.709Z,41.53
2023-05-08T11:13:24.713Z,41.47
2023-05-08T11:14:24.673Z,41.39
2023-05-08T11:15:25.805Z,41.38
2023-05-08T11:16:24.694Z,41.42
2023-05-08T11:17:25.701Z,41.33
2023-05-08T11:18:28.009Z,41.31
2023-05-08T11:19:25.726Z,41.42
2023-05-08T11:20:24.761Z,41.44
2023-05-08T11:21:24.862Z,41.72
2023-05-08T11:22:24.904Z,41.32
2023-05-08T11:23:24.919Z,41.31
2023-05-08T11:24:25.027Z,41.47
2023-05-08T11:25:25.021Z,41.46
2023-05-08T11:26:26.145Z,41.38
2023-05-08T11:27:25.205Z,41.40
2023-05-08T11:28:25.188Z,41.39
2023-05-08T11:29:25.204Z,41.50
2023-05-08T11:30:25.237Z,41.52
2023-05-08T11:31:26.385Z,41.59
2023-05-08T11:32:25.290Z,41.60
2023-05-08T11:33:25.291Z,41.55
2023-05-08T11:34:26.340Z,41.49
2023-05-08T11:35:26.412Z,41.52
2023-05-08T11:36:26.409Z,41.66
2023-05-08T11:37:25.459Z,41.77
2023-05-08T11:38:25.424Z,41.75
2023-05-08T11:39:25.425Z,41.83
2023-05-08T11:40:25.408Z,41.85
2023-05-08T11:41:25.496Z,41.88
2023-05-08T11:42:25.553Z,41.65
2023-05-08T11:43:26.511Z,41.64
2023-05-08T11:44:25.427Z,41.76
2023-05-08T11:45:25.448Z,41.81
2023-05-08T11:46:26.576Z,41.97
2023-05-08T11:47:26.570Z,42.07
2023-05-08T11:48:25.529Z,42.12
2023-05-08T11:49:29.013Z,42.14
2023-05-08T11:50:26.513Z,42.23
2023-05-08T11:51:26.438Z,42.26
2023-05-08T11:52:25.519Z,42.27
2023-05-08T11:53:25.495Z,42.25
2023-05-08T11:54:25.522Z,42.19
2023-05-08T11:55:25.447Z,42.24
2023-05-08T11:56:25.442Z,41.95
2023-05-08T11:57:25.468Z,42.03
2023-05-08T11:58:25.507Z,41.95
2023-05-08T11:59:25.410Z,41.81
2023-05-08T12:00:25.423Z,41.81
2023-05-08T12:01:25.425Z,41.58
2023-05-08T12:02:26.432Z,41.51
2023-05-08T12:03:25.755Z,41.57
2023-05-08T12:04:26.501Z,41.75
2023-05-08T12:05:25.350Z,41.75
2023-05-08T12:06:25.410Z,41.61
2023-05-08T12:07:25.352Z,41.60
2023-05-08T12:08:25.497Z,41.64
2023-05-08T12:09:26.418Z,41.58
2023-05-08T12:10:25.349Z,41.39
2023-05-08T12:11:26.368Z,41.69
2023-05-08T12:12:25.455Z,41.40
2023-05-08T12:13:25.580Z,41.59
2023-05-08T12:14:26.315Z,41.62
2023-05-08T12:15:25.300Z,41.33
2023-05-08T12:16:26.411Z,41.24
2023-05-08T12:17:25.463Z,41.66
2023-05-08T12:18:25.320Z,42.38
2023-05-08T12:19:26.330Z,42.21
2023-05-08T12:20:25.356Z,42.08
2023-05-08T12:21:25.395Z,41.88
2023-05-08T12:22:25.456Z,42.24
2023-05-08T12:23:25.400Z,42.19
2023-05-08T12:24:26.549Z,42.22
2023-05-08T12:25:25.575Z,42.14
2023-05-08T12:26:25.565Z,42.78
2023-05-08T12:27:26.595Z,42.88
2023-05-08T12:28:25.642Z,43.10
2023-05-08T12:29:25.694Z,43.05
2023-05-08T12:30:25.628Z,43.03
2023-05-08T12:31:25.827Z,42.78
2023-05-08T12:32:29.021Z,42.27
2023-05-08T12:33:25.760Z,42.44
2023-05-08T12:34:25.684Z,42.58
2023-05-08T12:35:25.728Z,42.63
2023-05-08T12:36:26.743Z,42.67
2023-05-08T12:37:25.710Z,42.65
2023-05-08T12:38:25.636Z,42.72
2023-05-08T12:39:26.621Z,42.74
2023-05-08T12:40:26.601Z,42.73
2023-05-08T12:41:25.586Z,42.75
2023-05-08T12:42:26.580Z,42.71
2023-05-08T12:43:26.593Z,42.70
2023-05-08T12:44:26.567Z,42.70
2023-05-08T12:45:25.574Z,42.66
2023-05-08T12:46:25.599Z,42.64
2023-05-08T12:47:26.693Z,42.67
2023-05-08T12:48:26.544Z,42.67
2023-05-08T12:49:26.533Z,42.64
2023-05-08T12:50:25.534Z,42.60
2023-05-08T12:51:26.532Z,42.59
2023-05-08T12:52:25.530Z,42.65
2023-05-08T12:53:26.519Z,42.54
2023-05-08T12:54:25.487Z,42.57
2023-05-08T12:55:26.556Z,42.61
2023-05-08T12:56:25.485Z,42.58
2023-05-08T12:57:26.484Z,42.52
2023-05-08T12:58:26.559Z,42.59
2023-05-08T12:59:25.482Z,42.37
2023-05-08T13:00:25.449Z,42.41
2023-05-08T13:01:25.469Z,42.43
2023-05-08T13:02:25.512Z,42.31
2023-05-08T13:03:26.745Z,42.33
2023-05-08T13:04:26.512Z,42.37
2023-05-08T13:05:25.421Z,42.26
2023-05-08T13:06:25.423Z,42.26
2023-05-08T13:07:25.399Z,42.30
2023-05-08T13:08:25.401Z,42.25
2023-05-08T13:09:25.396Z,42.28
2023-05-08T13:10:26.683Z,42.32
2023-05-08T13:11:25.376Z,42.31
2023-05-08T13:12:26.372Z,42.27
2023-05-08T13:13:26.530Z,42.30
2023-05-08T13:14:26.355Z,42.07
2023-05-08T13:15:26.363Z,42.15
2023-05-08T13:16:25.430Z,42.17
2023-05-08T13:17:25.367Z,42.25
2023-05-08T13:18:26.316Z,41.98
2023-05-08T13:19:26.458Z,42.09
2023-05-08T13:20:25.379Z,42.14
2023-05-08T13:21:27.819Z,42.07
2023-05-08T13:22:25.307Z,41.94
2023-05-08T13:23:26.309Z,42.10
2023-05-08T13:24:26.397Z,42.15
2023-05-08T13:25:26.263Z,42.29
2023-05-08T13:26:25.325Z,42.22
2023-05-08T13:27:26.989Z,42.25
2023-05-08T13:28:26.331Z,42.33
2023-05-08T13:29:25.250Z,41.95
2023-05-08T13:30:25.243Z,42.06
2023-05-08T13:31:25.339Z,42.14
2023-05-08T13:32:26.257Z,42.04
2023-05-08T13:33:25.260Z,42.00
2023-05-08T13:34:26.258Z,41.89
2023-05-08T13:35:25.325Z,42.04
2023-05-08T13:36:25.227Z,41.90
2023-05-08T13:37:26.200Z,41.84
2023-05-08T13:38:26.216Z,41.73
2023-05-08T13:39:25.180Z,41.37
2023-05-08T13:40:25.188Z,41.71
2023-05-08T13:41:26.203Z,41.83
2023-05-08T13:42:26.160Z,41.72
2023-05-08T13:43:25.264Z,41.67
2023-05-08T13:44:26.154Z,41.39
2023-05-08T13:45:26.135Z,41.66
2023-05-08T13:46:25.188Z,41.72
2023-05-08T13:47:25.204Z,41.39
2023-05-08T13:48:26.133Z,41.42
2023-05-08T13:49:26.121Z,41.63
2023-05-08T13:50:26.100Z,41.76
2023-05-08T13:51:25.243Z,41.73
2023-05-08T13:52:26.082Z,41.66
2023-05-08T13:53:26.103Z,41.30
2023-05-08T13:54:25.083Z,41.52
2023-05-08T13:55:26.064Z,41.24
2023-05-08T13:56:26.065Z,41.34
2023-05-08T13:57:26.051Z,41.47
2023-05-08T13:58:26.062Z,41.70
2023-05-08T13:59:26.055Z,41.79
2023-05-08T14:00:28.084Z,41.54
2023-05-08T14:01:27.169Z,41.64
2023-05-08T14:02:26.278Z,41.81
2023-05-08T14:03:26.125Z,41.86
2023-05-08T14:04:26.009Z,41.98
2023-05-08T14:05:25.032Z,42.02
2023-05-08T14:06:25.002Z,42.13
2023-05-08T14:07:25.097Z,42.18
2023-05-08T14:08:26.048Z,42.16
2023-05-08T14:09:24.992Z,42.13
2023-05-08T14:10:25.971Z,42.10
2023-05-08T14:11:24.969Z,42.03
2023-05-08T14:12:25.984Z,42.08
2023-05-08T14:13:26.081Z,42.19
2023-05-08T14:14:25.931Z,42.17
2023-05-08T14:15:31.835Z,42.14
2023-05-08T14:16:25.962Z,42.20
2023-05-08T14:17:25.944Z,42.24
2023-05-08T14:18:25.919Z,42.28
2023-05-08T14:19:25.912Z,42.22
2023-05-08T14:20:25.894Z,42.29
2023-05-08T14:21:25.902Z,41.98
2023-05-08T14:22:25.884Z,41.73
2023-05-08T14:23:25.006Z,41.77
2023-05-08T14:24:24.871Z,41.83
2023-05-08T14:25:24.846Z,41.92
2023-05-08T14:26:24.881Z,42.00
2023-05-08T14:27:25.844Z,42.10
2023-05-08T14:28:25.853Z,42.22
2023-05-08T14:29:25.822Z,42.22
2023-05-08T14:30:24.834Z,42.03
2023-05-08T14:31:24.849Z,41.98
2023-05-08T14:32:25.828Z,42.01
2023-05-08T14:33:24.838Z,41.73
2023-05-08T14:34:25.795Z,41.81
2023-05-08T14:35:25.796Z,41.87
2023-05-08T14:36:24.807Z,41.96
2023-05-08T14:37:24.785Z,41.55
2023-05-08T14:38:25.781Z,41.52
2023-05-08T14:39:24.894Z,41.63
2023-05-08T14:40:25.776Z,41.81
2023-05-08T14:41:25.743Z,41.78
2023-05-08T14:42:24.738Z,41.83
2023-05-08T14:43:25.737Z,41.85
2023-05-08T14:44:24.763Z,41.84
2023-05-08T14:45:25.795Z,41.70
2023-05-08T14:46:24.846Z,41.71
2023-05-08T14:47:25.744Z,41.75
2023-05-08T14:48:25.717Z,41.88
2023-05-08T14:49:36.863Z,41.97
2023-05-08T14:50:25.692Z,42.03
2023-05-08T14:51:24.675Z,42.07
2023-05-08T14:52:25.699Z,42.01
2023-05-08T14:53:25.873Z,42.02
2023-05-08T14:54:24.928Z,41.88
2023-05-08T14:55:25.003Z,42.01
2023-05-08T14:56:24.977Z,41.98
2023-05-08T14:57:24.626Z,41.99
2023-05-08T14:58:24.625Z,42.05
2023-05-08T14:59:24.613Z,41.98
2023-05-08T15:00:24.610Z,41.87
2023-05-08T15:01:24.656Z,42.01
2023-05-08T15:02:24.733Z,42.10
2023-05-08T15:03:24.716Z,42.14
2023-05-08T15:04:24.643Z,42.14
2023-05-08T15:05:24.868Z,42.14
2023-05-08T15:06:25.573Z,42.03
2023-05-08T15:07:24.562Z,42.06
2023-05-08T15:08:25.538Z,42.05
2023-05-08T15:09:24.536Z,41.97
2023-05-08T15:10:25.547Z,41.99
2023-05-08T15:11:24.656Z,41.76
2023-05-08T15:12:24.515Z,41.83
2023-05-08T15:13:24.555Z,41.81
2023-05-08T15:14:25.538Z,41.86
2023-05-08T15:15:24.544Z,41.89
2023-05-08T15:16:24.630Z,41.80
2023-05-08T15:17:25.626Z,41.91
2023-05-08T15:18:25.599Z,42.03
2023-05-08T15:19:25.635Z,42.05
2023-05-08T15:20:24.641Z,41.95
2023-05-08T15:21:24.663Z,42.12
2023-05-08T15:22:26.515Z,42.02
2023-05-08T15:23:24.670Z,41.90
2023-05-08T15:24:25.670Z,41.70
2023-05-08T15:25:25.686Z,41.85
2023-05-08T15:26:25.637Z,41.88
2023-05-08T15:27:24.780Z,41.85
2023-05-08T15:28:25.651Z,41.87
2023-05-08T15:29:24.726Z,41.94
